Egeland, North Dakota
Current Conditions -  °F | °C
As of 12:55 AM on Monday 24 Nov 2014 (Local Time) from K9D7 Reporting Station
Overcast Overcast  
Wind Chill: -7°   Ceiling: 900
Heat Index: 10°   Visibility: 10mi
Dew Point:   Wind: 17mph
Humidity: 79%   Direction: 350°N
Pressure: 29.69"   Gusts: 29mph
Location:  48.63°N, 99.1°W
Report Text: K9D7 240655Z AUTO 35015G25KT 10SM BKN009 OVC015 M12/M15 A2969 RMK AO2
Loading
Personal Weather Stations






























Interactive Weather Map New forecast layout! Learn more

10-Day Weather Forecast

Advertisements
Track Severe Weather on mobile